sensor_id;sensor_type;location;lat;lon;timestamp;P1;durP1;ratioP1;P2;durP2;ratioP2
75059;SDS011;63640;59.264;18.116;2024-03-06T00:01:51;7.15;;;1.50;;
75059;SDS011;63640;59.264;18.116;2024-03-06T00:04:17;8.45;;;1.58;;
75059;SDS011;63640;59.264;18.116;2024-03-06T00:06:42;7.00;;;1.55;;
75059;SDS011;63640;59.264;18.116;2024-03-06T00:09:08;8.70;;;2.15;;
75059;SDS011;63640;59.264;18.116;2024-03-06T00:11:34;5.10;;;1.63;;
75059;SDS011;63640;59.264;18.116;2024-03-06T00:14:02;5.70;;;1.33;;
75059;SDS011;63640;59.264;18.116;2024-03-06T00:16:27;5.28;;;2.03;;
75059;SDS011;63640;59.264;18.116;2024-03-06T00:18:53;6.95;;;1.83;;
75059;SDS011;63640;59.264;18.116;2024-03-06T00:21:18;5.70;;;1.60;;
75059;SDS011;63640;59.264;18.116;2024-03-06T00:23:44;7.07;;;1.40;;
75059;SDS011;63640;59.264;18.116;2024-03-06T00:26:11;8.85;;;1.85;;
75059;SDS011;63640;59.264;18.116;2024-03-06T00:28:38;11.32;;;2.05;;
75059;SDS011;63640;59.264;18.116;2024-03-06T00:31:04;5.07;;;1.40;;
75059;SDS011;63640;59.264;18.116;2024-03-06T00:33:30;7.68;;;2.30;;
75059;SDS011;63640;59.264;18.116;2024-03-06T00:35:56;7.38;;;1.95;;
75059;SDS011;63640;59.264;18.116;2024-03-06T00:38:21;7.50;;;2.00;;
75059;SDS011;63640;59.264;18.116;2024-03-06T00:40:47;10.25;;;2.28;;
75059;SDS011;63640;59.264;18.116;2024-03-06T00:43:12;6.60;;;1.77;;
75059;SDS011;63640;59.264;18.116;2024-03-06T00:45:38;7.95;;;1.98;;
75059;SDS011;63640;59.264;18.116;2024-03-06T00:48:03;5.10;;;1.45;;
75059;SDS011;63640;59.264;18.116;2024-03-06T00:50:29;8.68;;;2.05;;
75059;SDS011;63640;59.264;18.116;2024-03-06T00:52:54;7.90;;;1.67;;
75059;SDS011;63640;59.264;18.116;2024-03-06T00:55:20;7.30;;;2.05;;
75059;SDS011;63640;59.264;18.116;2024-03-06T00:57:45;6.88;;;2.03;;
75059;SDS011;63640;59.264;18.116;2024-03-06T01:00:11;5.53;;;2.00;;
75059;SDS011;63640;59.264;18.116;2024-03-06T01:02:37;5.25;;;2.10;;
75059;SDS011;63640;59.264;18.116;2024-03-06T01:05:03;7.13;;;2.50;;
75059;SDS011;63640;59.264;18.116;2024-03-06T01:07:29;7.97;;;2.40;;
75059;SDS011;63640;59.264;18.116;2024-03-06T01:09:58;8.27;;;2.40;;
75059;SDS011;63640;59.264;18.116;2024-03-06T01:12:24;6.78;;;2.70;;
75059;SDS011;63640;59.264;18.116;2024-03-06T01:14:49;8.32;;;2.58;;
75059;SDS011;63640;59.264;18.116;2024-03-06T01:17:15;5.82;;;2.10;;
75059;SDS011;63640;59.264;18.116;2024-03-06T01:19:40;7.38;;;2.92;;
75059;SDS011;63640;59.264;18.116;2024-03-06T01:22:08;7.07;;;2.45;;
75059;SDS011;63640;59.264;18.116;2024-03-06T01:24:38;7.35;;;2.15;;
75059;SDS011;63640;59.264;18.116;2024-03-06T01:27:04;9.05;;;3.03;;
75059;SDS011;63640;59.264;18.116;2024-03-06T01:29:29;11.23;;;2.78;;
75059;SDS011;63640;59.264;18.116;2024-03-06T01:31:54;8.07;;;2.83;;
75059;SDS011;63640;59.264;18.116;2024-03-06T01:34:20;8.60;;;2.95;;
75059;SDS011;63640;59.264;18.116;2024-03-06T01:36:46;10.00;;;3.00;;
75059;SDS011;63640;59.264;18.116;2024-03-06T01:39:11;7.90;;;2.55;;
75059;SDS011;63640;59.264;18.116;2024-03-06T01:41:37;8.50;;;2.90;;
75059;SDS011;63640;59.264;18.116;2024-03-06T01:44:02;9.55;;;2.45;;
75059;SDS011;63640;59.264;18.116;2024-03-06T01:46:29;9.02;;;2.83;;
75059;SDS011;63640;59.264;18.116;2024-03-06T01:48:54;7.18;;;2.08;;
75059;SDS011;63640;59.264;18.116;2024-03-06T01:51:20;9.95;;;3.08;;
75059;SDS011;63640;59.264;18.116;2024-03-06T01:53:46;11.15;;;2.92;;
75059;SDS011;63640;59.264;18.116;2024-03-06T01:56:12;7.63;;;2.38;;
75059;SDS011;63640;59.264;18.116;2024-03-06T01:58:42;9.00;;;2.60;;
75059;SDS011;63640;59.264;18.116;2024-03-06T02:01:09;8.90;;;3.13;;
75059;SDS011;63640;59.264;18.116;2024-03-06T02:03:34;7.15;;;2.58;;
75059;SDS011;63640;59.264;18.116;2024-03-06T02:08:27;12.68;;;2.30;;
75059;SDS011;63640;59.264;18.116;2024-03-06T02:10:52;8.52;;;2.40;;
75059;SDS011;63640;59.264;18.116;2024-03-06T02:13:18;13.05;;;2.83;;
75059;SDS011;63640;59.264;18.116;2024-03-06T02:15:47;6.57;;;2.40;;
75059;SDS011;63640;59.264;18.116;2024-03-06T02:18:13;8.20;;;2.08;;
75059;SDS011;63640;59.264;18.116;2024-03-06T02:20:38;7.47;;;2.13;;
75059;SDS011;63640;59.264;18.116;2024-03-06T02:23:07;8.75;;;2.92;;
75059;SDS011;63640;59.264;18.116;2024-03-06T02:25:32;6.57;;;2.53;;
75059;SDS011;63640;59.264;18.116;2024-03-06T02:27:58;8.05;;;2.65;;
75059;SDS011;63640;59.264;18.116;2024-03-06T02:30:24;6.75;;;1.80;;
75059;SDS011;63640;59.264;18.116;2024-03-06T02:32:49;6.90;;;2.78;;
75059;SDS011;63640;59.264;18.116;2024-03-06T02:35:15;9.25;;;2.10;;
75059;SDS011;63640;59.264;18.116;2024-03-06T02:37:41;13.38;;;2.85;;
75059;SDS011;63640;59.264;18.116;2024-03-06T02:40:07;7.53;;;2.40;;
75059;SDS011;63640;59.264;18.116;2024-03-06T02:42:35;10.93;;;2.95;;
75059;SDS011;63640;59.264;18.116;2024-03-06T02:45:01;11.18;;;2.67;;
75059;SDS011;63640;59.264;18.116;2024-03-06T02:47:26;10.18;;;2.72;;
75059;SDS011;63640;59.264;18.116;2024-03-06T02:49:52;8.63;;;2.30;;
75059;SDS011;63640;59.264;18.116;2024-03-06T02:52:18;6.13;;;2.17;;
75059;SDS011;63640;59.264;18.116;2024-03-06T02:54:43;11.07;;;2.45;;
75059;SDS011;63640;59.264;18.116;2024-03-06T02:57:09;10.45;;;2.30;;
75059;SDS011;63640;59.264;18.116;2024-03-06T02:59:34;7.30;;;2.22;;
75059;SDS011;63640;59.264;18.116;2024-03-06T03:01:59;6.82;;;2.22;;
75059;SDS011;63640;59.264;18.116;2024-03-06T03:04:25;8.55;;;2.40;;
75059;SDS011;63640;59.264;18.116;2024-03-06T03:06:51;7.65;;;2.08;;
75059;SDS011;63640;59.264;18.116;2024-03-06T03:09:17;6.60;;;2.50;;
75059;SDS011;63640;59.264;18.116;2024-03-06T03:11:42;5.75;;;1.77;;
75059;SDS011;63640;59.264;18.116;2024-03-06T03:14:09;7.10;;;2.33;;
75059;SDS011;63640;59.264;18.116;2024-03-06T03:16:34;9.93;;;2.72;;
75059;SDS011;63640;59.264;18.116;2024-03-06T03:19:00;7.53;;;2.40;;
75059;SDS011;63640;59.264;18.116;2024-03-06T03:21:26;8.02;;;1.92;;
75059;SDS011;63640;59.264;18.116;2024-03-06T03:23:52;11.23;;;2.60;;
75059;SDS011;63640;59.264;18.116;2024-03-06T03:26:17;10.48;;;2.53;;
75059;SDS011;63640;59.264;18.116;2024-03-06T03:28:43;8.07;;;2.40;;
75059;SDS011;63640;59.264;18.116;2024-03-06T03:31:08;6.70;;;2.58;;
75059;SDS011;63640;59.264;18.116;2024-03-06T03:33:44;8.85;;;2.60;;
75059;SDS011;63640;59.264;18.116;2024-03-06T03:36:09;6.82;;;2.47;;
75059;SDS011;63640;59.264;18.116;2024-03-06T03:38:36;9.75;;;2.15;;
75059;SDS011;63640;59.264;18.116;2024-03-06T03:41:11;8.00;;;2.22;;
75059;SDS011;63640;59.264;18.116;2024-03-06T03:43:41;6.85;;;2.28;;
75059;SDS011;63640;59.264;18.116;2024-03-06T03:46:07;6.72;;;2.45;;
75059;SDS011;63640;59.264;18.116;2024-03-06T03:48:34;6.90;;;2.47;;
75059;SDS011;63640;59.264;18.116;2024-03-06T03:51:03;7.53;;;2.78;;
75059;SDS011;63640;59.264;18.116;2024-03-06T03:53:30;7.95;;;2.20;;
75059;SDS011;63640;59.264;18.116;2024-03-06T03:55:55;13.43;;;2.33;;
75059;SDS011;63640;59.264;18.116;2024-03-06T03:58:21;8.63;;;2.58;;
75059;SDS011;63640;59.264;18.116;2024-03-06T04:00:46;8.27;;;2.33;;
75059;SDS011;63640;59.264;18.116;2024-03-06T04:03:12;13.23;;;2.95;;
75059;SDS011;63640;59.264;18.116;2024-03-06T04:05:37;10.07;;;2.30;;
75059;SDS011;63640;59.264;18.116;2024-03-06T04:08:03;9.07;;;3.35;;
75059;SDS011;63640;59.264;18.116;2024-03-06T04:10:31;12.00;;;3.03;;
75059;SDS011;63640;59.264;18.116;2024-03-06T04:12:57;10.48;;;2.42;;
75059;SDS011;63640;59.264;18.116;2024-03-06T04:15:24;8.05;;;3.10;;
75059;SDS011;63640;59.264;18.116;2024-03-06T04:17:50;6.75;;;2.17;;
75059;SDS011;63640;59.264;18.116;2024-03-06T04:20:16;9.43;;;3.22;;
75059;SDS011;63640;59.264;18.116;2024-03-06T04:22:41;9.27;;;2.97;;
75059;SDS011;63640;59.264;18.116;2024-03-06T04:25:07;9.02;;;3.17;;
75059;SDS011;63640;59.264;18.116;2024-03-06T04:27:33;7.82;;;2.30;;
75059;SDS011;63640;59.264;18.116;2024-03-06T04:29:59;8.73;;;2.75;;
75059;SDS011;63640;59.264;18.116;2024-03-06T04:32:24;11.13;;;3.20;;
75059;SDS011;63640;59.264;18.116;2024-03-06T04:34:49;8.10;;;2.75;;
75059;SDS011;63640;59.264;18.116;2024-03-06T04:39:40;11.30;;;3.25;;
75059;SDS011;63640;59.264;18.116;2024-03-06T04:42:06;8.55;;;2.50;;
75059;SDS011;63640;59.264;18.116;2024-03-06T04:44:36;8.27;;;2.85;;
75059;SDS011;63640;59.264;18.116;2024-03-06T04:47:01;7.30;;;2.83;;
75059;SDS011;63640;59.264;18.116;2024-03-06T04:49:27;7.60;;;2.22;;
75059;SDS011;63640;59.264;18.116;2024-03-06T04:51:53;9.75;;;2.28;;
75059;SDS011;63640;59.264;18.116;2024-03-06T04:54:18;10.48;;;2.90;;
75059;SDS011;63640;59.264;18.116;2024-03-06T04:56:44;10.48;;;3.55;;
75059;SDS011;63640;59.264;18.116;2024-03-06T04:59:09;9.30;;;3.05;;
75059;SDS011;63640;59.264;18.116;2024-03-06T05:01:35;7.15;;;2.42;;
75059;SDS011;63640;59.264;18.116;2024-03-06T05:04:00;11.80;;;2.55;;
75059;SDS011;63640;59.264;18.116;2024-03-06T05:06:26;8.35;;;2.85;;
75059;SDS011;63640;59.264;18.116;2024-03-06T05:08:51;6.63;;;2.85;;
75059;SDS011;63640;59.264;18.116;2024-03-06T05:11:16;6.75;;;2.90;;
75059;SDS011;63640;59.264;18.116;2024-03-06T05:13:42;9.88;;;3.30;;
75059;SDS011;63640;59.264;18.116;2024-03-06T05:16:08;10.50;;;3.30;;
75059;SDS011;63640;59.264;18.116;2024-03-06T05:18:34;11.15;;;3.13;;
75059;SDS011;63640;59.264;18.116;2024-03-06T05:21:00;12.93;;;3.05;;
75059;SDS011;63640;59.264;18.116;2024-03-06T05:23:25;8.57;;;3.15;;
75059;SDS011;63640;59.264;18.116;2024-03-06T05:25:51;7.50;;;2.67;;
75059;SDS011;63640;59.264;18.116;2024-03-06T05:28:16;7.28;;;2.70;;
75059;SDS011;63640;59.264;18.116;2024-03-06T05:30:42;9.05;;;2.85;;
75059;SDS011;63640;59.264;18.116;2024-03-06T05:33:07;10.02;;;3.25;;
75059;SDS011;63640;59.264;18.116;2024-03-06T05:35:33;8.60;;;2.28;;
75059;SDS011;63640;59.264;18.116;2024-03-06T05:37:58;10.13;;;3.08;;
75059;SDS011;63640;59.264;18.116;2024-03-06T05:40:23;9.52;;;3.08;;
75059;SDS011;63640;59.264;18.116;2024-03-06T05:42:49;11.50;;;3.13;;
75059;SDS011;63640;59.264;18.116;2024-03-06T05:45:14;6.07;;;2.50;;
75059;SDS011;63640;59.264;18.116;2024-03-06T05:47:40;11.55;;;2.40;;
75059;SDS011;63640;59.264;18.116;2024-03-06T05:50:25;9.48;;;2.58;;
75059;SDS011;63640;59.264;18.116;2024-03-06T05:52:51;10.20;;;3.10;;
75059;SDS011;63640;59.264;18.116;2024-03-06T05:55:16;8.82;;;2.25;;
75059;SDS011;63640;59.264;18.116;2024-03-06T05:57:42;7.93;;;2.88;;
75059;SDS011;63640;59.264;18.116;2024-03-06T06:00:13;8.40;;;2.80;;
75059;SDS011;63640;59.264;18.116;2024-03-06T06:02:39;10.68;;;3.70;;
75059;SDS011;63640;59.264;18.116;2024-03-06T06:05:04;7.85;;;2.60;;
75059;SDS011;63640;59.264;18.116;2024-03-06T06:07:30;8.95;;;2.33;;
75059;SDS011;63640;59.264;18.116;2024-03-06T06:09:56;8.80;;;3.00;;
75059;SDS011;63640;59.264;18.116;2024-03-06T06:12:21;8.13;;;2.75;;
75059;SDS011;63640;59.264;18.116;2024-03-06T06:14:47;9.93;;;3.05;;
75059;SDS011;63640;59.264;18.116;2024-03-06T06:17:12;10.70;;;2.58;;
75059;SDS011;63640;59.264;18.116;2024-03-06T06:19:41;9.25;;;2.95;;
75059;SDS011;63640;59.264;18.116;2024-03-06T06:22:08;7.95;;;3.00;;
75059;SDS011;63640;59.264;18.116;2024-03-06T06:24:33;11.25;;;3.38;;
75059;SDS011;63640;59.264;18.116;2024-03-06T06:26:58;9.93;;;2.83;;
75059;SDS011;63640;59.264;18.116;2024-03-06T06:29:24;8.85;;;2.75;;
75059;SDS011;63640;59.264;18.116;2024-03-06T06:31:49;11.77;;;3.05;;
75059;SDS011;63640;59.264;18.116;2024-03-06T06:34:15;11.27;;;2.70;;
75059;SDS011;63640;59.264;18.116;2024-03-06T06:36:44;7.60;;;2.58;;
75059;SDS011;63640;59.264;18.116;2024-03-06T06:39:11;12.20;;;2.80;;
75059;SDS011;63640;59.264;18.116;2024-03-06T06:41:38;8.30;;;2.90;;
75059;SDS011;63640;59.264;18.116;2024-03-06T06:44:03;7.88;;;2.90;;
75059;SDS011;63640;59.264;18.116;2024-03-06T06:46:29;9.05;;;2.60;;
75059;SDS011;63640;59.264;18.116;2024-03-06T06:48:54;8.13;;;2.70;;
75059;SDS011;63640;59.264;18.116;2024-03-06T06:51:20;9.10;;;2.67;;
75059;SDS011;63640;59.264;18.116;2024-03-06T06:53:46;6.15;;;2.63;;
75059;SDS011;63640;59.264;18.116;2024-03-06T06:56:11;10.02;;;2.90;;
75059;SDS011;63640;59.264;18.116;2024-03-06T06:58:37;8.20;;;2.70;;
75059;SDS011;63640;59.264;18.116;2024-03-06T07:01:02;9.15;;;2.83;;
75059;SDS011;63640;59.264;18.116;2024-03-06T07:03:29;9.75;;;2.90;;
75059;SDS011;63640;59.264;18.116;2024-03-06T07:05:55;10.50;;;2.70;;
75059;SDS011;63640;59.264;18.116;2024-03-06T07:08:22;10.35;;;2.83;;
75059;SDS011;63640;59.264;18.116;2024-03-06T07:10:48;6.63;;;2.42;;
75059;SDS011;63640;59.264;18.116;2024-03-06T07:13:13;8.68;;;2.88;;
75059;SDS011;63640;59.264;18.116;2024-03-06T07:15:38;14.25;;;2.95;;
75059;SDS011;63640;59.264;18.116;2024-03-06T07:18:04;7.78;;;3.08;;
75059;SDS011;63640;59.264;18.116;2024-03-06T07:20:30;8.27;;;2.25;;
75059;SDS011;63640;59.264;18.116;2024-03-06T07:22:56;11.02;;;2.92;;
75059;SDS011;63640;59.264;18.116;2024-03-06T07:25:22;6.68;;;2.47;;
75059;SDS011;63640;59.264;18.116;2024-03-06T07:27:48;7.10;;;2.10;;
75059;SDS011;63640;59.264;18.116;2024-03-06T07:30:14;7.18;;;2.58;;
75059;SDS011;63640;59.264;18.116;2024-03-06T07:32:39;8.30;;;2.83;;
75059;SDS011;63640;59.264;18.116;2024-03-06T07:35:05;8.48;;;2.50;;
75059;SDS011;63640;59.264;18.116;2024-03-06T07:37:31;6.50;;;2.35;;
75059;SDS011;63640;59.264;18.116;2024-03-06T07:39:58;8.05;;;2.20;;
75059;SDS011;63640;59.264;18.116;2024-03-06T07:42:25;6.72;;;2.00;;
75059;SDS011;63640;59.264;18.116;2024-03-06T07:44:51;7.82;;;2.45;;
75059;SDS011;63640;59.264;18.116;2024-03-06T07:47:16;8.35;;;2.28;;
75059;SDS011;63640;59.264;18.116;2024-03-06T07:49:42;6.38;;;2.25;;
75059;SDS011;63640;59.264;18.116;2024-03-06T07:52:09;7.20;;;2.00;;
75059;SDS011;63640;59.264;18.116;2024-03-06T07:54:35;9.25;;;2.05;;
75059;SDS011;63640;59.264;18.116;2024-03-06T07:57:01;9.48;;;2.33;;
75059;SDS011;63640;59.264;18.116;2024-03-06T07:59:26;6.38;;;2.47;;
75059;SDS011;63640;59.264;18.116;2024-03-06T08:01:52;10.35;;;2.40;;
75059;SDS011;63640;59.264;18.116;2024-03-06T08:04:17;8.13;;;1.92;;
75059;SDS011;63640;59.264;18.116;2024-03-06T08:06:43;6.07;;;2.30;;
75059;SDS011;63640;59.264;18.116;2024-03-06T08:09:08;6.13;;;1.90;;
75059;SDS011;63640;59.264;18.116;2024-03-06T08:11:34;9.27;;;2.20;;
75059;SDS011;63640;59.264;18.116;2024-03-06T08:14:00;8.60;;;2.08;;
75059;SDS011;63640;59.264;18.116;2024-03-06T08:16:27;8.05;;;2.00;;
75059;SDS011;63640;59.264;18.116;2024-03-06T08:18:53;7.18;;;1.88;;
75059;SDS011;63640;59.264;18.116;2024-03-06T08:21:18;5.35;;;1.85;;
75059;SDS011;63640;59.264;18.116;2024-03-06T08:23:45;7.50;;;1.92;;
75059;SDS011;63640;59.264;18.116;2024-03-06T08:26:12;7.38;;;1.85;;
75059;SDS011;63640;59.264;18.116;2024-03-06T08:28:38;4.30;;;1.50;;
75059;SDS011;63640;59.264;18.116;2024-03-06T08:31:03;5.65;;;1.85;;
75059;SDS011;63640;59.264;18.116;2024-03-06T08:33:29;6.22;;;1.60;;
75059;SDS011;63640;59.264;18.116;2024-03-06T08:35:54;6.97;;;1.67;;
75059;SDS011;63640;59.264;18.116;2024-03-06T08:38:20;4.65;;;1.80;;
75059;SDS011;63640;59.264;18.116;2024-03-06T08:40:45;7.85;;;1.90;;
75059;SDS011;63640;59.264;18.116;2024-03-06T08:43:14;8.55;;;1.95;;
75059;SDS011;63640;59.264;18.116;2024-03-06T08:45:40;6.65;;;1.83;;
75059;SDS011;63640;59.264;18.116;2024-03-06T08:48:06;5.60;;;1.45;;
75059;SDS011;63640;59.264;18.116;2024-03-06T08:50:32;6.00;;;1.52;;
75059;SDS011;63640;59.264;18.116;2024-03-06T08:52:57;8.60;;;2.05;;
75059;SDS011;63640;59.264;18.116;2024-03-06T08:55:23;5.93;;;1.90;;
75059;SDS011;63640;59.264;18.116;2024-03-06T08:57:48;5.22;;;1.45;;
75059;SDS011;63640;59.264;18.116;2024-03-06T09:00:15;7.90;;;1.55;;
75059;SDS011;63640;59.264;18.116;2024-03-06T09:02:42;4.53;;;1.85;;
75059;SDS011;63640;59.264;18.116;2024-03-06T09:05:08;4.90;;;1.50;;
75059;SDS011;63640;59.264;18.116;2024-03-06T09:07:35;8.63;;;2.40;;
75059;SDS011;63640;59.264;18.116;2024-03-06T09:10:04;7.75;;;1.85;;
75059;SDS011;63640;59.264;18.116;2024-03-06T09:12:30;5.05;;;1.27;;
75059;SDS011;63640;59.264;18.116;2024-03-06T09:14:56;7.20;;;1.42;;
75059;SDS011;63640;59.264;18.116;2024-03-06T09:17:21;5.00;;;1.48;;
75059;SDS011;63640;59.264;18.116;2024-03-06T09:19:47;7.82;;;1.45;;
75059;SDS011;63640;59.264;18.116;2024-03-06T09:22:12;4.50;;;1.77;;
75059;SDS011;63640;59.264;18.116;2024-03-06T09:24:38;5.78;;;1.58;;
75059;SDS011;63640;59.264;18.116;2024-03-06T09:27:04;8.02;;;1.60;;
75059;SDS011;63640;59.264;18.116;2024-03-06T09:29:29;5.85;;;1.55;;
75059;SDS011;63640;59.264;18.116;2024-03-06T09:31:55;6.72;;;1.50;;
75059;SDS011;63640;59.264;18.116;2024-03-06T09:34:20;5.45;;;2.20;;
75059;SDS011;63640;59.264;18.116;2024-03-06T09:36:47;9.27;;;1.67;;
75059;SDS011;63640;59.264;18.116;2024-03-06T09:39:14;6.80;;;1.50;;
75059;SDS011;63640;59.264;18.116;2024-03-06T09:41:48;6.88;;;1.55;;
75059;SDS011;63640;59.264;18.116;2024-03-06T09:44:17;5.20;;;1.83;;
75059;SDS011;63640;59.264;18.116;2024-03-06T09:46:44;6.70;;;1.63;;
75059;SDS011;63640;59.264;18.116;2024-03-06T09:49:14;4.93;;;1.50;;
75059;SDS011;63640;59.264;18.116;2024-03-06T09:51:48;8.65;;;1.70;;
75059;SDS011;63640;59.264;18.116;2024-03-06T09:54:20;4.25;;;1.35;;
75059;SDS011;63640;59.264;18.116;2024-03-06T09:56:47;6.60;;;1.40;;
75059;SDS011;63640;59.264;18.116;2024-03-06T09:59:12;5.28;;;1.80;;
75059;SDS011;63640;59.264;18.116;2024-03-06T10:01:40;8.02;;;1.33;;
75059;SDS011;63640;59.264;18.116;2024-03-06T10:04:20;9.27;;;1.48;;
75059;SDS011;63640;59.264;18.116;2024-03-06T10:06:57;6.15;;;1.77;;
75059;SDS011;63640;59.264;18.116;2024-03-06T10:09:24;5.75;;;1.40;;
75059;SDS011;63640;59.264;18.116;2024-03-06T10:11:51;4.10;;;1.30;;
75059;SDS011;63640;59.264;18.116;2024-03-06T10:16:58;6.32;;;1.40;;
75059;SDS011;63640;59.264;18.116;2024-03-06T10:19:25;5.45;;;1.33;;
75059;SDS011;63640;59.264;18.116;2024-03-06T10:21:54;7.68;;;1.40;;
75059;SDS011;63640;59.264;18.116;2024-03-06T10:24:24;5.03;;;1.42;;
75059;SDS011;63640;59.264;18.116;2024-03-06T10:26:52;5.78;;;1.85;;
75059;SDS011;63640;59.264;18.116;2024-03-06T10:29:20;6.45;;;1.98;;
75059;SDS011;63640;59.264;18.116;2024-03-06T10:31:50;8.63;;;1.70;;
75059;SDS011;63640;59.264;18.116;2024-03-06T10:34:21;7.03;;;1.70;;
75059;SDS011;63640;59.264;18.116;2024-03-06T10:36:56;6.25;;;1.48;;
75059;SDS011;63640;59.264;18.116;2024-03-06T10:39:29;5.95;;;1.40;;
75059;SDS011;63640;59.264;18.116;2024-03-06T10:41:56;5.70;;;1.50;;
75059;SDS011;63640;59.264;18.116;2024-03-06T10:44:23;7.63;;;1.85;;
75059;SDS011;63640;59.264;18.116;2024-03-06T10:47:00;9.80;;;1.70;;
75059;SDS011;63640;59.264;18.116;2024-03-06T10:49:30;5.20;;;1.60;;
75059;SDS011;63640;59.264;18.116;2024-03-06T10:51:58;6.13;;;1.63;;
75059;SDS011;63640;59.264;18.116;2024-03-06T10:54:27;6.72;;;1.73;;
75059;SDS011;63640;59.264;18.116;2024-03-06T10:56:55;4.68;;;1.30;;
75059;SDS011;63640;59.264;18.116;2024-03-06T10:59:21;5.60;;;1.58;;
75059;SDS011;63640;59.264;18.116;2024-03-06T11:01:52;5.60;;;1.40;;
75059;SDS011;63640;59.264;18.116;2024-03-06T11:04:23;5.85;;;1.30;;
75059;SDS011;63640;59.264;18.116;2024-03-06T11:06:50;4.38;;;1.55;;
75059;SDS011;63640;59.264;18.116;2024-03-06T11:09:16;6.18;;;1.52;;
75059;SDS011;63640;59.264;18.116;2024-03-06T11:11:48;7.22;;;1.98;;
75059;SDS011;63640;59.264;18.116;2024-03-06T11:14:15;6.53;;;1.85;;
75059;SDS011;63640;59.264;18.116;2024-03-06T11:16:56;7.75;;;1.50;;
75059;SDS011;63640;59.264;18.116;2024-03-06T11:19:25;8.60;;;1.50;;
75059;SDS011;63640;59.264;18.116;2024-03-06T11:21:52;5.80;;;1.38;;
75059;SDS011;63640;59.264;18.116;2024-03-06T11:24:18;6.70;;;1.63;;
75059;SDS011;63640;59.264;18.116;2024-03-06T11:27:02;6.07;;;2.22;;
75059;SDS011;63640;59.264;18.116;2024-03-06T11:30:02;5.10;;;1.40;;
75059;SDS011;63640;59.264;18.116;2024-03-06T11:32:57;8.07;;;1.80;;
75059;SDS011;63640;59.264;18.116;2024-03-06T11:35:23;9.02;;;1.58;;
75059;SDS011;63640;59.264;18.116;2024-03-06T11:37:49;4.95;;;1.40;;
75059;SDS011;63640;59.264;18.116;2024-03-06T11:40:22;10.93;;;1.73;;
75059;SDS011;63640;59.264;18.116;2024-03-06T11:42:49;5.10;;;1.20;;
75059;SDS011;63640;59.264;18.116;2024-03-06T11:45:19;5.10;;;1.63;;
75059;SDS011;63640;59.264;18.116;2024-03-06T11:47:59;7.20;;;1.60;;
75059;SDS011;63640;59.264;18.116;2024-03-06T11:50:26;9.40;;;1.42;;
75059;SDS011;63640;59.264;18.116;2024-03-06T11:52:57;9.40;;;2.15;;
75059;SDS011;63640;59.264;18.116;2024-03-06T11:55:23;6.75;;;1.52;;
75059;SDS011;63640;59.264;18.116;2024-03-06T11:57:50;7.22;;;1.77;;
75059;SDS011;63640;59.264;18.116;2024-03-06T12:00:16;6.68;;;2.00;;
75059;SDS011;63640;59.264;18.116;2024-03-06T12:02:42;8.85;;;1.60;;
75059;SDS011;63640;59.264;18.116;2024-03-06T12:05:08;9.20;;;1.52;;
75059;SDS011;63640;59.264;18.116;2024-03-06T12:07:45;6.70;;;1.55;;
75059;SDS011;63640;59.264;18.116;2024-03-06T12:10:11;5.00;;;1.63;;
75059;SDS011;63640;59.264;18.116;2024-03-06T12:12:37;5.15;;;1.52;;
75059;SDS011;63640;59.264;18.116;2024-03-06T12:15:03;5.45;;;1.42;;
75059;SDS011;63640;59.264;18.116;2024-03-06T12:17:29;7.50;;;1.50;;
75059;SDS011;63640;59.264;18.116;2024-03-06T12:19:55;6.63;;;1.90;;
75059;SDS011;63640;59.264;18.116;2024-03-06T12:22:24;7.88;;;1.80;;
75059;SDS011;63640;59.264;18.116;2024-03-06T12:24:58;6.30;;;1.50;;
75059;SDS011;63640;59.264;18.116;2024-03-06T12:27:24;6.40;;;1.63;;
75059;SDS011;63640;59.264;18.116;2024-03-06T12:29:52;6.05;;;1.33;;
75059;SDS011;63640;59.264;18.116;2024-03-06T12:32:17;4.80;;;1.50;;
75059;SDS011;63640;59.264;18.116;2024-03-06T12:34:43;6.13;;;1.42;;
75059;SDS011;63640;59.264;18.116;2024-03-06T12:37:09;5.70;;;1.40;;
75059;SDS011;63640;59.264;18.116;2024-03-06T12:39:37;9.90;;;1.60;;
75059;SDS011;63640;59.264;18.116;2024-03-06T12:42:03;5.45;;;1.55;;
75059;SDS011;63640;59.264;18.116;2024-03-06T12:44:28;6.10;;;1.83;;
75059;SDS011;63640;59.264;18.116;2024-03-06T12:46:54;10.00;;;1.60;;
75059;SDS011;63640;59.264;18.116;2024-03-06T12:49:19;6.15;;;1.38;;
75059;SDS011;63640;59.264;18.116;2024-03-06T12:51:45;6.35;;;2.03;;
75059;SDS011;63640;59.264;18.116;2024-03-06T12:54:10;7.97;;;2.03;;
75059;SDS011;63640;59.264;18.116;2024-03-06T12:56:36;7.47;;;2.63;;
75059;SDS011;63640;59.264;18.116;2024-03-06T12:59:01;5.47;;;1.45;;
75059;SDS011;63640;59.264;18.116;2024-03-06T13:01:27;7.55;;;2.00;;
75059;SDS011;63640;59.264;18.116;2024-03-06T13:03:53;7.07;;;1.30;;
75059;SDS011;63640;59.264;18.116;2024-03-06T13:06:18;17.65;;;2.85;;
75059;SDS011;63640;59.264;18.116;2024-03-06T13:08:44;6.40;;;1.38;;
75059;SDS011;63640;59.264;18.116;2024-03-06T13:11:09;7.30;;;1.58;;
75059;SDS011;63640;59.264;18.116;2024-03-06T13:13:35;9.95;;;1.60;;
75059;SDS011;63640;59.264;18.116;2024-03-06T13:16:00;10.05;;;1.70;;
75059;SDS011;63640;59.264;18.116;2024-03-06T13:18:26;8.00;;;1.60;;
75059;SDS011;63640;59.264;18.116;2024-03-06T13:20:52;5.72;;;1.55;;
75059;SDS011;63640;59.264;18.116;2024-03-06T13:23:17;7.40;;;1.52;;
75059;SDS011;63640;59.264;18.116;2024-03-06T13:25:43;9.73;;;1.60;;
75059;SDS011;63640;59.264;18.116;2024-03-06T13:28:10;11.73;;;1.50;;
75059;SDS011;63640;59.264;18.116;2024-03-06T13:30:36;8.30;;;1.42;;
75059;SDS011;63640;59.264;18.116;2024-03-06T13:33:03;6.88;;;1.73;;
75059;SDS011;63640;59.264;18.116;2024-03-06T13:35:28;6.55;;;1.55;;
75059;SDS011;63640;59.264;18.116;2024-03-06T13:37:54;5.60;;;1.42;;
75059;SDS011;63640;59.264;18.116;2024-03-06T13:40:19;6.47;;;1.83;;
75059;SDS011;63640;59.264;18.116;2024-03-06T13:42:45;7.70;;;1.70;;
75059;SDS011;63640;59.264;18.116;2024-03-06T13:45:11;4.22;;;1.40;;
75059;SDS011;63640;59.264;18.116;2024-03-06T13:47:40;9.38;;;2.28;;
75059;SDS011;63640;59.264;18.116;2024-03-06T13:50:07;7.72;;;1.80;;
75059;SDS011;63640;59.264;18.116;2024-03-06T13:52:34;7.88;;;2.10;;
75059;SDS011;63640;59.264;18.116;2024-03-06T13:54:59;7.22;;;1.65;;
75059;SDS011;63640;59.264;18.116;2024-03-06T13:57:30;6.13;;;1.73;;
75059;SDS011;63640;59.264;18.116;2024-03-06T13:59:58;8.68;;;1.90;;
75059;SDS011;63640;59.264;18.116;2024-03-06T14:04:55;6.22;;;1.80;;
75059;SDS011;63640;59.264;18.116;2024-03-06T14:07:20;8.80;;;1.65;;
75059;SDS011;63640;59.264;18.116;2024-03-06T14:09:46;4.25;;;1.42;;
75059;SDS011;63640;59.264;18.116;2024-03-06T14:12:12;8.90;;;1.75;;
75059;SDS011;63640;59.264;18.116;2024-03-06T14:14:37;6.13;;;1.63;;
75059;SDS011;63640;59.264;18.116;2024-03-06T14:17:03;6.03;;;1.73;;
75059;SDS011;63640;59.264;18.116;2024-03-06T14:19:29;9.77;;;1.83;;
75059;SDS011;63640;59.264;18.116;2024-03-06T14:21:54;5.97;;;1.58;;
75059;SDS011;63640;59.264;18.116;2024-03-06T14:24:20;8.43;;;1.73;;
75059;SDS011;63640;59.264;18.116;2024-03-06T14:26:46;9.02;;;1.60;;
75059;SDS011;63640;59.264;18.116;2024-03-06T14:29:11;9.98;;;2.10;;
75059;SDS011;63640;59.264;18.116;2024-03-06T14:31:37;6.90;;;1.77;;
75059;SDS011;63640;59.264;18.116;2024-03-06T14:34:02;12.02;;;1.70;;
75059;SDS011;63640;59.264;18.116;2024-03-06T14:36:28;5.95;;;1.60;;
75059;SDS011;63640;59.264;18.116;2024-03-06T14:38:53;6.00;;;1.65;;
75059;SDS011;63640;59.264;18.116;2024-03-06T14:41:19;14.23;;;2.05;;